TAF LETO
LETO 081700Z 0818/0918 27015KT 9999 SCT030 SCT045 TX11/0915Z TN03/0906Z PROB40 TEMPO 0818/0901 28015G28KT BECMG 0820/0822 23012KT PROB30 TEMPO 0909/0914 24012G25KT=
METAR LETO
LETO 082100Z 28014KT 9999 FEW060 06/00 Q1017 NOSIG=
LETO 082030Z 28009KT 9999 FEW060 05/00 Q1017 NOSIG=
LETO 082000Z 29013KT CAVOK 06/M00 Q1017 NOSIG=
LETO 081930Z 30010KT CAVOK 05/M00 Q1017 NOSIG=
LETO 081900Z 34004KT 300V020 CAVOK 04/01 Q1017 NOSIG=
WC LETO
WS LETO
WV LETO